createdAt,value
2022-08-07T00:01:43.798Z,16.46
2022-08-07T00:04:16.428Z,16.38
2022-08-07T00:07:01.413Z,16.37
2022-08-07T00:09:35.805Z,16.31
2022-08-07T00:12:05.462Z,16.30
2022-08-07T00:14:34.218Z,16.23
2022-08-07T00:17:06.618Z,16.21
2022-08-07T00:20:01.379Z,16.12
2022-08-07T00:22:35.212Z,16.09
2022-08-07T00:25:07.032Z,16.08
2022-08-07T00:27:52.357Z,16.00
2022-08-07T00:30:27.571Z,15.97
2022-08-07T00:32:58.777Z,15.93
2022-08-07T00:35:29.901Z,15.91
2022-08-07T00:38:02.339Z,15.88
2022-08-07T00:40:39.859Z,15.84
2022-08-07T00:43:59.520Z,15.79
2022-08-07T00:46:04.596Z,15.70
2022-08-07T00:48:37.082Z,15.71
2022-08-07T00:51:12.034Z,15.66
2022-08-07T00:53:50.678Z,15.58
2022-08-07T00:56:30.272Z,15.55
2022-08-07T00:59:03.592Z,15.56
2022-08-07T01:01:41.239Z,15.44
2022-08-07T01:04:24.582Z,15.41
2022-08-07T01:06:56.172Z,15.31
2022-08-07T01:10:03.903Z,15.25
2022-08-07T01:12:28.843Z,15.30
2022-08-07T01:15:01.715Z,15.25
2022-08-07T01:17:35.708Z,15.25
2022-08-07T01:20:17.271Z,15.23
2022-08-07T01:23:00.472Z,15.11
2022-08-07T01:25:55.573Z,15.12
2022-08-07T01:28:26.349Z,15.03
2022-08-07T01:31:00.137Z,14.98
2022-08-07T01:33:56.325Z,14.94
2022-08-07T01:36:33.886Z,14.92
2022-08-07T01:39:18.388Z,14.88
2022-08-07T01:42:07.481Z,14.88
2022-08-07T01:44:47.926Z,14.74
2022-08-07T01:48:19.503Z,14.72
2022-08-07T01:50:14.605Z,14.68
2022-08-07T01:52:49.738Z,14.71
2022-08-07T01:55:28.106Z,14.69
2022-08-07T01:58:06.337Z,14.63
2022-08-07T02:01:09.496Z,14.57
2022-08-07T02:03:48.856Z,14.55
2022-08-07T02:06:31.615Z,14.51
2022-08-07T02:09:08.917Z,14.48
2022-08-07T02:12:03.341Z,14.48
2022-08-07T02:14:40.799Z,14.44
2022-08-07T02:17:27.583Z,14.41
2022-08-07T02:20:04.819Z,14.36
2022-08-07T02:22:41.408Z,14.39
2022-08-07T02:25:17.462Z,14.30
2022-08-07T02:28:00.136Z,14.32
2022-08-07T02:30:32.179Z,14.30
2022-08-07T02:33:09.158Z,14.31
2022-08-07T02:36:29.081Z,14.25
2022-08-07T02:38:39.125Z,14.24
2022-08-07T02:41:21.814Z,14.22
2022-08-07T02:43:55.320Z,14.19
2022-08-07T02:46:32.487Z,14.13
2022-08-07T02:49:03.306Z,14.16
2022-08-07T02:51:49.980Z,14.13
2022-08-07T02:54:27.847Z,14.11
2022-08-07T02:57:03.633Z,14.11
2022-08-07T02:59:38.391Z,14.04
2022-08-07T03:02:11.581Z,14.09
2022-08-07T03:04:42.963Z,14.09
2022-08-07T03:07:18.056Z,14.09
2022-08-07T03:09:52.551Z,14.13
2022-08-07T03:12:31.057Z,14.18
2022-08-07T03:15:10.568Z,14.22
2022-08-07T03:17:53.471Z,14.25
2022-08-07T03:20:29.032Z,14.30
2022-08-07T03:23:04.492Z,14.28
2022-08-07T03:25:58.286Z,14.27
2022-08-07T03:28:37.486Z,14.22
2022-08-07T03:31:24.378Z,14.17
2022-08-07T03:34:01.105Z,14.10
2022-08-07T03:36:34.897Z,14.18
2022-08-07T03:39:11.518Z,14.11
2022-08-07T03:41:47.769Z,14.09
2022-08-07T03:44:21.789Z,14.10
2022-08-07T03:47:10.886Z,14.15
2022-08-07T03:49:41.762Z,14.18
2022-08-07T03:52:22.556Z,14.22
2022-08-07T03:54:57.351Z,14.25
2022-08-07T03:59:07.419Z,14.30
2022-08-07T04:00:33.856Z,14.35
2022-08-07T04:03:10.079Z,14.44
2022-08-07T04:05:45.702Z,14.52
2022-08-07T04:08:21.350Z,14.51
2022-08-07T04:12:25.415Z,14.60
2022-08-07T04:14:10.705Z,14.68
2022-08-07T04:16:38.410Z,14.75
2022-08-07T04:19:15.222Z,14.79
2022-08-07T04:22:05.369Z,14.79
2022-08-07T04:24:42.034Z,14.88
2022-08-07T04:27:20.390Z,14.91
2022-08-07T04:30:02.203Z,15.01
2022-08-07T04:32:58.417Z,15.08
2022-08-07T04:35:35.447Z,15.24
2022-08-07T04:38:13.130Z,15.36
2022-08-07T04:40:52.806Z,15.42
2022-08-07T04:44:12.082Z,15.53
2022-08-07T04:46:59.557Z,15.61
2022-08-07T04:49:42.121Z,15.69
2022-08-07T04:52:32.164Z,15.80
2022-08-07T04:55:15.203Z,15.86
2022-08-07T04:58:34.952Z,15.93
2022-08-07T05:01:20.631Z,16.05
2022-08-07T05:04:08.228Z,16.16
2022-08-07T05:06:53.626Z,16.23
2022-08-07T05:09:45.359Z,16.35
2022-08-07T05:12:27.141Z,16.41
2022-08-07T05:15:23.495Z,16.43
2022-08-07T05:18:08.567Z,16.55
2022-08-07T05:20:44.925Z,16.57
2022-08-07T05:23:20.460Z,16.70
2022-08-07T05:26:11.551Z,16.84
2022-08-07T05:28:50.118Z,16.91
2022-08-07T05:31:34.515Z,16.96
2022-08-07T05:34:10.941Z,17.05
2022-08-07T05:36:49.081Z,17.16
2022-08-07T05:40:05.003Z,17.21
2022-08-07T05:42:36.980Z,17.35
2022-08-07T05:45:26.288Z,17.42
2022-08-07T05:48:07.655Z,17.54
2022-08-07T05:50:44.546Z,17.65
2022-08-07T05:54:12.054Z,17.73
2022-08-07T05:56:09.527Z,17.73
2022-08-07T05:58:49.352Z,17.86
2022-08-07T06:01:27.563Z,17.83
2022-08-07T06:04:09.992Z,17.85
2022-08-07T06:06:46.111Z,17.91
2022-08-07T06:09:18.179Z,17.92
2022-08-07T06:11:50.737Z,17.98
2022-08-07T06:14:28.895Z,17.99
2022-08-07T06:17:08.919Z,18.02
2022-08-07T06:19:57.562Z,18.08
2022-08-07T06:22:39.065Z,18.12
2022-08-07T06:25:34.749Z,18.15
2022-08-07T06:28:06.638Z,18.23
2022-08-07T06:30:45.876Z,18.25
2022-08-07T06:33:22.534Z,18.39
2022-08-07T06:36:06.649Z,18.43
2022-08-07T06:38:59.475Z,18.49
2022-08-07T06:42:00.599Z,18.57
2022-08-07T06:45:13.009Z,18.61
2022-08-07T06:47:58.493Z,18.65
2022-08-07T06:50:33.603Z,18.68
2022-08-07T06:54:12.145Z,18.74
2022-08-07T06:56:02.119Z,18.81
2022-08-07T06:58:37.595Z,18.80
2022-08-07T07:01:16.642Z,18.94
2022-08-07T07:03:50.234Z,18.93
2022-08-07T07:06:28.190Z,19.02
2022-08-07T07:09:14.590Z,19.02
2022-08-07T07:12:07.404Z,19.10
2022-08-07T07:14:52.889Z,19.19
2022-08-07T07:17:39.090Z,19.13
2022-08-07T07:20:17.719Z,19.14
2022-08-07T07:24:08.641Z,19.21
2022-08-07T07:26:34.227Z,19.31
2022-08-07T07:28:48.344Z,19.42
2022-08-07T07:31:44.226Z,19.47
2022-08-07T07:34:30.704Z,19.47
2022-08-07T07:37:22.054Z,19.42
2022-08-07T07:40:01.644Z,19.49
2022-08-07T07:42:43.158Z,19.59
2022-08-07T07:45:22.786Z,19.78
2022-08-07T07:48:24.299Z,19.79
2022-08-07T07:51:08.109Z,19.96
2022-08-07T07:53:52.068Z,20.14
2022-08-07T07:56:29.996Z,20.31
2022-08-07T07:59:02.887Z,20.30
2022-08-07T08:02:04.673Z,20.56
2022-08-07T08:04:27.684Z,20.51
2022-08-07T08:07:02.636Z,20.59
2022-08-07T08:09:52.132Z,20.55
2022-08-07T08:12:52.024Z,20.56
2022-08-07T08:15:23.209Z,20.69
2022-08-07T08:17:57.097Z,20.73
2022-08-07T08:20:32.323Z,20.71
2022-08-07T08:23:20.628Z,20.73
2022-08-07T08:26:23.613Z,20.82
2022-08-07T08:28:59.329Z,20.92
2022-08-07T08:31:59.221Z,21.00
2022-08-07T08:34:35.538Z,21.17
2022-08-07T08:37:09.842Z,21.03
2022-08-07T08:39:58.705Z,21.18
2022-08-07T08:42:40.442Z,21.22
2022-08-07T08:45:20.865Z,21.38
2022-08-07T08:48:10.797Z,21.45
2022-08-07T08:50:51.596Z,21.45
2022-08-07T08:53:46.925Z,21.35
2022-08-07T08:56:24.763Z,21.44
2022-08-07T08:59:06.367Z,21.52
2022-08-07T09:01:51.146Z,21.65
2022-08-07T09:04:31.683Z,21.87
2022-08-07T09:07:12.835Z,22.07
2022-08-07T09:10:02.543Z,21.97
2022-08-07T09:12:54.966Z,21.89
2022-08-07T09:16:20.599Z,21.76
2022-08-07T09:19:52.829Z,21.71
2022-08-07T09:24:31.139Z,21.92
2022-08-07T09:25:27.211Z,22.05
2022-08-07T09:29:24.362Z,22.12
2022-08-07T09:31:08.490Z,22.14
2022-08-07T09:34:09.698Z,21.95
2022-08-07T09:36:49.689Z,21.85
2022-08-07T09:39:53.902Z,21.89
2022-08-07T09:42:53.702Z,21.97
2022-08-07T09:47:25.812Z,21.93
2022-08-07T09:50:02.566Z,22.01
2022-08-07T09:52:16.132Z,21.90
2022-08-07T09:54:50.684Z,21.82
2022-08-07T09:57:58.111Z,21.57
2022-08-07T10:00:33.188Z,21.69
2022-08-07T10:04:06.799Z,21.66
2022-08-07T10:07:03.480Z,21.70
2022-08-07T10:10:00.239Z,21.78
2022-08-07T10:14:01.451Z,21.95
2022-08-07T10:16:43.256Z,22.08
2022-08-07T10:19:45.414Z,22.15
2022-08-07T10:22:51.004Z,22.03
2022-08-07T10:25:43.248Z,21.85
2022-08-07T10:28:39.248Z,21.75
2022-08-07T10:31:49.552Z,21.82
2022-08-07T10:34:45.254Z,21.93
2022-08-07T10:38:00.596Z,21.92
2022-08-07T10:40:30.390Z,22.03
2022-08-07T10:43:11.393Z,22.01
2022-08-07T10:45:58.190Z,21.92
2022-08-07T10:48:41.732Z,21.97
2022-08-07T10:51:39.170Z,22.13
2022-08-07T10:54:19.210Z,22.23
2022-08-07T10:57:09.763Z,22.31
2022-08-07T11:00:05.449Z,22.50
2022-08-07T11:02:49.458Z,22.52
2022-08-07T11:05:49.233Z,22.40
2022-08-07T11:08:41.237Z,22.38
2022-08-07T11:11:16.631Z,22.35
2022-08-07T11:14:44.640Z,22.08
2022-08-07T11:17:01.783Z,22.21
2022-08-07T11:19:40.218Z,22.38
2022-08-07T11:22:26.573Z,22.42
2022-08-07T11:25:12.920Z,22.47
2022-08-07T11:28:01.391Z,22.26
2022-08-07T11:30:48.085Z,22.54
2022-08-07T11:33:54.245Z,22.50
2022-08-07T11:36:40.115Z,22.48
2022-08-07T11:39:25.252Z,22.48
2022-08-07T11:42:19.582Z,22.41
2022-08-07T11:45:00.021Z,22.45
2022-08-07T11:47:56.693Z,22.40
2022-08-07T11:50:58.373Z,22.41
2022-08-07T11:54:00.920Z,22.59
2022-08-07T11:56:53.041Z,22.74
2022-08-07T12:00:11.298Z,22.77
2022-08-07T12:03:44.893Z,22.61
2022-08-07T12:06:51.666Z,22.50
2022-08-07T12:09:37.256Z,22.43
2022-08-07T12:12:12.274Z,22.18
2022-08-07T12:14:55.360Z,22.01
2022-08-07T12:17:55.876Z,22.05
2022-08-07T12:20:38.044Z,21.97
2022-08-07T12:24:05.434Z,22.20
2022-08-07T12:26:46.890Z,22.01
2022-08-07T12:29:38.716Z,22.00
2022-08-07T12:32:22.066Z,21.96
2022-08-07T12:34:56.099Z,22.01
2022-08-07T12:37:28.311Z,21.99
2022-08-07T12:40:46.630Z,21.57
2022-08-07T12:44:03.903Z,21.47
2022-08-07T12:46:26.378Z,21.28
2022-08-07T12:49:39.532Z,20.94
2022-08-07T12:52:17.131Z,20.72
2022-08-07T12:55:09.706Z,20.75
2022-08-07T12:58:02.041Z,20.60
2022-08-07T13:00:50.107Z,20.66
2022-08-07T13:03:59.246Z,20.85
2022-08-07T13:07:01.921Z,21.18
2022-08-07T13:10:19.499Z,21.55
2022-08-07T13:13:10.899Z,21.53
2022-08-07T13:15:59.276Z,21.52
2022-08-07T13:18:44.771Z,21.60
2022-08-07T13:21:37.238Z,21.52
2022-08-07T13:24:25.580Z,21.47
2022-08-07T13:27:10.532Z,21.50
2022-08-07T13:29:53.765Z,21.61
2022-08-07T13:32:35.185Z,21.59
2022-08-07T13:35:21.144Z,21.69
2022-08-07T13:38:03.762Z,21.80
2022-08-07T13:40:58.552Z,21.99
2022-08-07T13:43:34.231Z,21.96
2022-08-07T13:46:12.897Z,21.96
2022-08-07T13:48:58.536Z,21.97
2022-08-07T13:52:23.096Z,21.85
2022-08-07T13:54:29.445Z,21.83
2022-08-07T13:57:14.587Z,21.79
2022-08-07T13:59:57.874Z,21.79
2022-08-07T14:02:39.644Z,21.82
2022-08-07T14:05:25.152Z,21.85
2022-08-07T14:08:10.372Z,21.92
2022-08-07T14:10:43.605Z,21.94
2022-08-07T14:13:22.251Z,21.83
2022-08-07T14:16:06.771Z,21.90
2022-08-07T14:18:57.170Z,21.86
2022-08-07T14:22:03.987Z,21.86
2022-08-07T14:24:28.633Z,21.94
2022-08-07T14:27:16.137Z,22.03
2022-08-07T14:30:11.705Z,22.14
2022-08-07T14:32:48.794Z,22.37
2022-08-07T14:35:43.374Z,22.57
2022-08-07T14:38:26.862Z,22.69
2022-08-07T14:41:06.474Z,22.97
2022-08-07T14:43:58.663Z,23.12
2022-08-07T14:46:51.930Z,23.29
2022-08-07T14:49:56.837Z,23.44
2022-08-07T14:52:34.021Z,23.54
2022-08-07T14:55:05.326Z,23.53
2022-08-07T14:57:58.350Z,23.68
2022-08-07T15:00:42.041Z,23.87
2022-08-07T15:03:18.935Z,24.01
2022-08-07T15:05:54.661Z,23.92
2022-08-07T15:08:50.069Z,24.23
2022-08-07T15:13:05.886Z,24.12
2022-08-07T15:14:30.391Z,24.23
2022-08-07T15:17:05.515Z,24.46
2022-08-07T15:20:30.599Z,24.67
2022-08-07T15:22:55.047Z,24.76
2022-08-07T15:28:36.192Z,24.84
2022-08-07T15:31:57.691Z,24.99
2022-08-07T15:34:12.433Z,25.18
2022-08-07T15:37:02.676Z,25.18
2022-08-07T15:39:56.619Z,25.04
2022-08-07T15:42:56.059Z,25.06
2022-08-07T15:45:55.509Z,25.15
2022-08-07T15:48:33.556Z,25.20
2022-08-07T15:51:12.010Z,25.30
2022-08-07T15:53:53.002Z,25.39
2022-08-07T15:56:35.343Z,25.64
2022-08-07T15:59:16.625Z,25.66
2022-08-07T16:02:01.651Z,25.70
2022-08-07T16:04:37.842Z,25.89
2022-08-07T16:08:30.285Z,26.06
2022-08-07T16:10:17.069Z,26.20
2022-08-07T16:13:59.300Z,26.40
2022-08-07T16:16:48.850Z,26.57
2022-08-07T16:20:34.097Z,26.81
2022-08-07T16:23:53.809Z,26.95
2022-08-07T16:26:59.697Z,27.04
2022-08-07T16:30:10.182Z,27.04
2022-08-07T16:32:54.585Z,26.99
2022-08-07T16:35:51.972Z,26.99
2022-08-07T16:39:01.153Z,26.92
2022-08-07T16:41:56.165Z,26.73
2022-08-07T16:45:14.750Z,26.25
2022-08-07T16:49:10.479Z,25.81
2022-08-07T16:52:06.521Z,25.77
2022-08-07T16:55:08.374Z,25.94
2022-08-07T16:58:08.023Z,26.16
2022-08-07T17:00:43.655Z,26.32
2022-08-07T17:03:57.973Z,26.35
2022-08-07T17:06:42.535Z,26.20
2022-08-07T17:10:06.347Z,25.71
2022-08-07T17:12:44.729Z,24.99
2022-08-07T17:15:22.745Z,24.48
2022-08-07T17:18:25.960Z,24.09
2022-08-07T17:20:56.625Z,23.66
2022-08-07T17:23:44.494Z,23.15
2022-08-07T17:26:30.609Z,22.77
2022-08-07T17:30:12.608Z,22.50
2022-08-07T17:32:30.047Z,22.22
2022-08-07T17:35:49.963Z,21.89
2022-08-07T17:38:34.436Z,21.62
2022-08-07T17:42:01.211Z,21.42
2022-08-07T17:44:14.219Z,21.24
2022-08-07T17:47:00.220Z,21.12
2022-08-07T17:49:44.431Z,20.84
2022-08-07T17:52:30.635Z,20.62
2022-08-07T17:55:12.557Z,20.64
2022-08-07T17:58:02.503Z,20.44
2022-08-07T18:00:48.770Z,20.37
2022-08-07T18:04:04.289Z,20.24
2022-08-07T18:06:38.537Z,20.10
2022-08-07T18:09:15.977Z,20.01
2022-08-07T18:12:16.092Z,19.91
2022-08-07T18:14:51.533Z,19.84
2022-08-07T18:18:46.372Z,19.73
2022-08-07T18:21:03.490Z,19.66
2022-08-07T18:23:50.577Z,19.50
2022-08-07T18:26:58.382Z,19.38
2022-08-07T18:30:06.592Z,19.31
2022-08-07T18:33:10.511Z,19.16
2022-08-07T18:36:03.490Z,19.02
2022-08-07T18:40:09.006Z,18.91
2022-08-07T18:42:13.546Z,18.81
2022-08-07T18:45:44.993Z,18.75
2022-08-07T18:48:01.392Z,18.62
2022-08-07T18:50:55.906Z,18.53
2022-08-07T18:53:55.897Z,18.47
2022-08-07T18:57:25.786Z,18.37
2022-08-07T19:00:04.497Z,18.28
2022-08-07T19:03:00.605Z,18.10
2022-08-07T19:06:02.619Z,18.04
2022-08-07T19:08:39.377Z,17.96
2022-08-07T19:11:35.946Z,17.91
2022-08-07T19:14:17.021Z,17.86
2022-08-07T19:17:04.751Z,17.82
2022-08-07T19:19:54.747Z,17.78
2022-08-07T19:22:34.251Z,17.70
2022-08-07T19:26:24.612Z,17.60
2022-08-07T19:28:58.376Z,17.54
2022-08-07T19:31:43.721Z,17.49
2022-08-07T19:34:04.093Z,17.47
2022-08-07T19:36:44.513Z,17.42
2022-08-07T19:39:56.100Z,17.33
2022-08-07T19:42:40.505Z,17.35
2022-08-07T19:46:05.056Z,17.22
2022-08-07T19:48:18.672Z,17.22
2022-08-07T19:50:57.558Z,17.11
2022-08-07T19:54:35.001Z,16.98
2022-08-07T19:56:58.629Z,16.99
2022-08-07T19:59:18.816Z,16.96
2022-08-07T20:01:56.128Z,16.91
2022-08-07T20:04:37.551Z,16.82
2022-08-07T20:07:14.072Z,16.72
2022-08-07T20:10:35.527Z,16.67
2022-08-07T20:12:53.313Z,16.53
2022-08-07T20:15:32.979Z,16.53
2022-08-07T20:18:18.073Z,16.49
2022-08-07T20:20:51.924Z,16.32
2022-08-07T20:23:40.919Z,16.28
2022-08-07T20:26:15.298Z,16.27
2022-08-07T20:29:10.732Z,16.25
2022-08-07T20:31:54.388Z,16.25
2022-08-07T20:34:49.459Z,16.29
2022-08-07T20:37:25.536Z,16.29
2022-08-07T20:40:02.248Z,16.32
2022-08-07T20:42:39.173Z,16.34
2022-08-07T20:45:33.538Z,16.43
2022-08-07T20:48:28.455Z,16.45
2022-08-07T20:51:03.353Z,16.41
2022-08-07T20:54:03.491Z,16.41
2022-08-07T20:56:34.917Z,16.41
2022-08-07T21:00:04.484Z,16.38
2022-08-07T21:01:58.525Z,16.37
2022-08-07T21:04:32.859Z,16.36
2022-08-07T21:07:03.925Z,16.34
2022-08-07T21:09:53.082Z,16.29
2022-08-07T21:12:31.720Z,16.31
2022-08-07T21:15:06.687Z,16.23
2022-08-07T21:18:17.259Z,16.19
2022-08-07T21:20:33.498Z,16.16
2022-08-07T21:23:09.587Z,16.21
2022-08-07T21:25:58.543Z,16.14
2022-08-07T21:28:50.125Z,16.10
2022-08-07T21:32:41.583Z,16.07
2022-08-07T21:34:46.106Z,16.07
2022-08-07T21:37:26.684Z,16.06
2022-08-07T21:40:26.454Z,16.09
2022-08-07T21:43:06.136Z,16.06
2022-08-07T21:46:07.959Z,16.02
2022-08-07T21:48:48.124Z,16.04
2022-08-07T21:51:50.960Z,16.05
2022-08-07T21:54:35.809Z,16.04
2022-08-07T21:57:31.175Z,16.05
2022-08-07T22:00:23.246Z,16.06
2022-08-07T22:03:07.735Z,16.08
2022-08-07T22:05:49.888Z,16.10
2022-08-07T22:08:24.747Z,16.00
2022-08-07T22:11:01.364Z,16.12
2022-08-07T22:13:52.593Z,16.06
2022-08-07T22:16:42.654Z,16.02
2022-08-07T22:19:29.752Z,16.00
2022-08-07T22:22:17.718Z,15.96
2022-08-07T22:25:07.550Z,15.86
2022-08-07T22:28:08.002Z,15.87
2022-08-07T22:30:54.073Z,15.79
2022-08-07T22:33:53.073Z,15.77
2022-08-07T22:36:39.889Z,15.74
2022-08-07T22:39:23.536Z,15.62
2022-08-07T22:42:19.080Z,15.61
2022-08-07T22:44:57.976Z,15.57
2022-08-07T22:48:13.978Z,15.56
2022-08-07T22:51:36.441Z,15.50
2022-08-07T22:54:31.773Z,15.52
2022-08-07T22:57:19.310Z,15.52
2022-08-07T23:00:12.449Z,15.51
2022-08-07T23:03:03.579Z,15.58
2022-08-07T23:06:15.736Z,15.65
2022-08-07T23:10:04.644Z,15.67
2022-08-07T23:12:34.602Z,15.69
2022-08-07T23:16:06.913Z,15.71
2022-08-07T23:18:34.636Z,15.74
2022-08-07T23:21:30.302Z,15.77
2022-08-07T23:24:45.681Z,15.78
2022-08-07T23:28:22.372Z,15.80
2022-08-07T23:31:07.177Z,15.85
2022-08-07T23:34:20.916Z,15.86
2022-08-07T23:37:22.792Z,15.99
2022-08-07T23:40:15.027Z,15.98
2022-08-07T23:43:16.651Z,16.05
2022-08-07T23:46:03.795Z,16.00
2022-08-07T23:49:24.127Z,16.01
2022-08-07T23:53:11.965Z,16.10
2022-08-07T23:55:53.419Z,16.16
2022-08-07T23:58:31.826Z,16.26
